Mariano Benitez, Argentina
Current Conditions -  °F | °C
As of 9:00 AM on Tuesday 21 Oct 2014 (Local Time) from SAAR Reporting Station
Clear Clear  
Wind Chill: 72°   Ceiling: Unl
Heat Index: 72°   Visibility: 6mi
Dew Point: 52°   Wind: 13mph
Humidity: 50%   Direction: 360°N
Pressure: 30.09"   Gusts: NA
Location:  33.71°S, 60.6°W
Report Text: SAAR 211200Z 36011KT CAVOK 22/11 Q1019
Loading
Personal Weather Stations






























Interactive Weather Map
Tropical Storm Tracking
New forecast layout! Learn more

10-Day Weather Forecast

Advertisements
Track Severe Weather on mobile